sensor_id;sensor_type;location;lat;lon;timestamp;pressure;altitude;pressure_sealevel;temperature;humidity
6136;BME280;24008;42.664;23.372;2023-10-31T00:00:54;94946.88;;;11.28;78.57
6136;BME280;24008;42.664;23.372;2023-10-31T00:03:21;94909.63;;;11.06;79.23
6136;BME280;24008;42.664;23.372;2023-10-31T00:05:48;94960.38;;;11.20;79.23
6136;BME280;24008;42.664;23.372;2023-10-31T00:08:15;94974.38;;;11.16;79.14
6136;BME280;24008;42.664;23.372;2023-10-31T00:10:41;94876.75;;;10.64;79.34
6136;BME280;24008;42.664;23.372;2023-10-31T00:13:10;94928.38;;;10.97;79.00
6136;BME280;24008;42.664;23.372;2023-10-31T00:15:37;94877.28;;;10.68;79.13
6136;BME280;24008;42.664;23.372;2023-10-31T00:18:06;94923.81;;;10.91;78.76
6136;BME280;24008;42.664;23.372;2023-10-31T00:20:32;94950.97;;;11.01;78.64
6136;BME280;24008;42.664;23.372;2023-10-31T00:23:00;94943.72;;;10.87;78.31
6136;BME280;24008;42.664;23.372;2023-10-31T00:25:26;94944.69;;;10.76;77.98
6136;BME280;24008;42.664;23.372;2023-10-31T00:27:53;94936.38;;;10.74;78.59
6136;BME280;24008;42.664;23.372;2023-10-31T00:30:20;94936.75;;;10.70;78.82
6136;BME280;24008;42.664;23.372;2023-10-31T00:32:47;94936.09;;;10.68;79.20
6136;BME280;24008;42.664;23.372;2023-10-31T00:35:15;94943.88;;;10.66;78.95
6136;BME280;24008;42.664;23.372;2023-10-31T00:37:42;94901.81;;;10.41;79.47
6136;BME280;24008;42.664;23.372;2023-10-31T00:40:09;94789.56;;;9.63;78.82
6136;BME280;24008;42.664;23.372;2023-10-31T00:42:36;94936.50;;;10.44;78.73
6136;BME280;24008;42.664;23.372;2023-10-31T00:45:04;94851.13;;;9.89;78.94
6136;BME280;24008;42.664;23.372;2023-10-31T00:47:31;94900.94;;;10.02;78.35
6136;BME280;24008;42.664;23.372;2023-10-31T00:49:57;94920.78;;;10.20;79.16
6136;BME280;24008;42.664;23.372;2023-10-31T00:52:25;94927.63;;;10.19;80.17
6136;BME280;24008;42.664;23.372;2023-10-31T00:54:52;94836.44;;;9.52;80.38
6136;BME280;24008;42.664;23.372;2023-10-31T00:57:19;94892.84;;;9.78;80.00
6136;BME280;24008;42.664;23.372;2023-10-31T00:59:46;94925.16;;;9.89;80.40
6136;BME280;24008;42.664;23.372;2023-10-31T01:02:12;94924.72;;;9.84;80.47
6136;BME280;24008;42.664;23.372;2023-10-31T01:04:39;94917.44;;;9.79;81.31
6136;BME280;24008;42.664;23.372;2023-10-31T01:07:06;94914.38;;;9.75;80.91
6136;BME280;24008;42.664;23.372;2023-10-31T01:09:38;94883.97;;;9.53;81.49
6136;BME280;24008;42.664;23.372;2023-10-31T01:12:06;94910.59;;;9.70;81.51
6136;BME280;24008;42.664;23.372;2023-10-31T01:14:32;94907.91;;;9.71;81.78
6136;BME280;24008;42.664;23.372;2023-10-31T01:17:00;94707.72;;;8.47;82.63
6136;BME280;24008;42.664;23.372;2023-10-31T01:19:27;94703.03;;;8.43;82.43
6136;BME280;24008;42.664;23.372;2023-10-31T01:22:12;94862.19;;;9.49;82.42
6136;BME280;24008;42.664;23.372;2023-10-31T01:24:40;94861.50;;;9.47;83.46
6136;BME280;24008;42.664;23.372;2023-10-31T01:27:07;94896.88;;;9.71;83.68
6136;BME280;24008;42.664;23.372;2023-10-31T01:29:34;94790.91;;;8.98;82.88
6136;BME280;24008;42.664;23.372;2023-10-31T01:32:00;94875.63;;;9.51;83.04
6136;BME280;24008;42.664;23.372;2023-10-31T01:34:27;94905.22;;;9.63;83.48
6136;BME280;24008;42.664;23.372;2023-10-31T01:36:54;94894.19;;;9.63;83.52
6136;BME280;24008;42.664;23.372;2023-10-31T01:39:21;94854.09;;;9.34;83.47
6136;BME280;24008;42.664;23.372;2023-10-31T01:41:49;94889.09;;;9.63;84.73
6136;BME280;24008;42.664;23.372;2023-10-31T01:44:15;94892.03;;;9.68;85.40
6136;BME280;24008;42.664;23.372;2023-10-31T01:46:42;94890.16;;;9.70;84.82
6136;BME280;24008;42.664;23.372;2023-10-31T01:49:09;94870.53;;;9.51;84.79
6136;BME280;24008;42.664;23.372;2023-10-31T01:51:36;94893.09;;;9.56;84.11
6136;BME280;24008;42.664;23.372;2023-10-31T01:54:04;94784.63;;;9.02;84.79
6136;BME280;24008;42.664;23.372;2023-10-31T01:56:31;94889.91;;;9.73;85.53
6136;BME280;24008;42.664;23.372;2023-10-31T01:58:59;94889.09;;;9.72;86.10
6136;BME280;24008;42.664;23.372;2023-10-31T02:01:26;94888.28;;;9.72;85.46
6136;BME280;24008;42.664;23.372;2023-10-31T02:03:53;94875.28;;;9.65;86.02
6136;BME280;24008;42.664;23.372;2023-10-31T02:06:20;94882.38;;;9.81;85.32
6136;BME280;24008;42.664;23.372;2023-10-31T02:08:47;94874.72;;;9.81;85.67
6136;BME280;24008;42.664;23.372;2023-10-31T02:11:14;94869.50;;;9.92;84.74
6136;BME280;24008;42.664;23.372;2023-10-31T02:13:41;94848.28;;;9.82;84.64
6136;BME280;24008;42.664;23.372;2023-10-31T02:16:09;94579.84;;;8.13;83.92
6136;BME280;24008;42.664;23.372;2023-10-31T02:18:36;94790.47;;;9.43;84.55
6136;BME280;24008;42.664;23.372;2023-10-31T02:21:03;94879.59;;;9.84;83.64
6136;BME280;24008;42.664;23.372;2023-10-31T02:23:32;94867.19;;;9.80;84.03
6136;BME280;24008;42.664;23.372;2023-10-31T02:25:59;94800.81;;;9.41;83.70
6136;BME280;24008;42.664;23.372;2023-10-31T02:28:25;94794.09;;;9.40;84.60
6136;BME280;24008;42.664;23.372;2023-10-31T02:30:53;94861.47;;;9.87;84.26
6136;BME280;24008;42.664;23.372;2023-10-31T02:33:20;94838.88;;;9.83;83.95
6136;BME280;24008;42.664;23.372;2023-10-31T02:35:46;94596.16;;;8.32;83.00
6136;BME280;24008;42.664;23.372;2023-10-31T02:38:13;94839.69;;;9.83;83.32
6136;BME280;24008;42.664;23.372;2023-10-31T02:40:41;94860.22;;;9.91;82.83
6136;BME280;24008;42.664;23.372;2023-10-31T02:43:08;94859.28;;;9.92;83.11
6136;BME280;24008;42.664;23.372;2023-10-31T02:45:35;94837.78;;;9.75;83.07
6136;BME280;24008;42.664;23.372;2023-10-31T02:48:02;94855.00;;;9.93;83.08
6136;BME280;24008;42.664;23.372;2023-10-31T02:50:29;94794.94;;;9.60;82.70
6136;BME280;24008;42.664;23.372;2023-10-31T02:52:55;94859.03;;;9.95;83.45
6136;BME280;24008;42.664;23.372;2023-10-31T02:55:22;94776.38;;;9.38;82.77
6136;BME280;24008;42.664;23.372;2023-10-31T02:57:51;94827.59;;;9.66;82.92
6136;BME280;24008;42.664;23.372;2023-10-31T03:00:18;94766.16;;;9.29;83.01
6136;BME280;24008;42.664;23.372;2023-10-31T03:02:45;94762.81;;;9.28;83.88
6136;BME280;24008;42.664;23.372;2023-10-31T03:05:12;94857.28;;;9.86;83.45
6136;BME280;24008;42.664;23.372;2023-10-31T03:07:38;94866.13;;;9.82;83.47
6136;BME280;24008;42.664;23.372;2023-10-31T03:10:06;94862.50;;;9.75;83.36
6136;BME280;24008;42.664;23.372;2023-10-31T03:12:33;94862.09;;;9.70;84.06
6136;BME280;24008;42.664;23.372;2023-10-31T03:15:02;94868.41;;;9.66;84.48
6136;BME280;24008;42.664;23.372;2023-10-31T03:17:29;94837.06;;;9.45;85.74
6136;BME280;24008;42.664;23.372;2023-10-31T03:19:55;94869.47;;;9.63;85.23
6136;BME280;24008;42.664;23.372;2023-10-31T03:22:22;94822.94;;;9.31;86.01
6136;BME280;24008;42.664;23.372;2023-10-31T03:24:49;94822.28;;;9.38;85.94
6136;BME280;24008;42.664;23.372;2023-10-31T03:27:16;94827.78;;;9.44;85.87
6136;BME280;24008;42.664;23.372;2023-10-31T03:29:42;94853.50;;;9.61;86.01
6136;BME280;24008;42.664;23.372;2023-10-31T03:32:11;94792.19;;;9.23;86.00
6136;BME280;24008;42.664;23.372;2023-10-31T03:34:38;94841.78;;;9.59;86.18
6136;BME280;24008;42.664;23.372;2023-10-31T03:37:06;94788.56;;;9.25;86.15
6136;BME280;24008;42.664;23.372;2023-10-31T03:39:33;94841.53;;;9.52;86.82
6136;BME280;24008;42.664;23.372;2023-10-31T03:41:59;94832.63;;;9.47;86.86
6136;BME280;24008;42.664;23.372;2023-10-31T03:44:26;94783.72;;;9.13;87.89
6136;BME280;24008;42.664;23.372;2023-10-31T03:46:53;94832.50;;;9.38;87.51
6136;BME280;24008;42.664;23.372;2023-10-31T03:49:21;94810.97;;;9.22;87.62
6136;BME280;24008;42.664;23.372;2023-10-31T03:51:48;94788.78;;;9.03;87.43
6136;BME280;24008;42.664;23.372;2023-10-31T03:54:14;94832.59;;;9.27;88.23
6136;BME280;24008;42.664;23.372;2023-10-31T03:56:42;94757.28;;;8.74;88.34
6136;BME280;24008;42.664;23.372;2023-10-31T03:59:09;94831.78;;;9.17;88.05
6136;BME280;24008;42.664;23.372;2023-10-31T04:01:36;94807.94;;;8.97;88.97
6136;BME280;24008;42.664;23.372;2023-10-31T04:04:03;94792.88;;;8.85;89.11
6136;BME280;24008;42.664;23.372;2023-10-31T04:06:31;94775.13;;;8.74;88.65
6136;BME280;24008;42.664;23.372;2023-10-31T04:08:58;94700.22;;;8.25;89.86
6136;BME280;24008;42.664;23.372;2023-10-31T04:11:24;94836.34;;;9.23;90.11
6136;BME280;24008;42.664;23.372;2023-10-31T04:13:51;94777.72;;;8.83;90.37
6136;BME280;24008;42.664;23.372;2023-10-31T04:16:18;94814.28;;;9.03;90.07
6136;BME280;24008;42.664;23.372;2023-10-31T04:18:44;94844.13;;;9.22;88.95
6136;BME280;24008;42.664;23.372;2023-10-31T04:21:11;94773.38;;;8.74;89.13
6136;BME280;24008;42.664;23.372;2023-10-31T04:23:39;94770.28;;;8.71;88.99
6136;BME280;24008;42.664;23.372;2023-10-31T04:26:06;94811.06;;;9.01;89.80
6136;BME280;24008;42.664;23.372;2023-10-31T04:28:33;94823.81;;;9.01;89.41
6136;BME280;24008;42.664;23.372;2023-10-31T04:30:59;94826.59;;;8.98;90.01
6136;BME280;24008;42.664;23.372;2023-10-31T04:33:26;94811.56;;;8.95;90.41
6136;BME280;24008;42.664;23.372;2023-10-31T04:35:53;94808.19;;;8.94;90.37
6136;BME280;24008;42.664;23.372;2023-10-31T04:38:20;94816.00;;;8.93;90.43
6136;BME280;24008;42.664;23.372;2023-10-31T04:40:48;94739.22;;;8.46;90.96
6136;BME280;24008;42.664;23.372;2023-10-31T04:43:15;94740.81;;;8.47;91.22
6136;BME280;24008;42.664;23.372;2023-10-31T04:45:41;94807.06;;;8.78;91.73
6136;BME280;24008;42.664;23.372;2023-10-31T04:48:09;94822.28;;;8.89;91.75
6136;BME280;24008;42.664;23.372;2023-10-31T04:50:35;94820.78;;;8.86;91.93
6136;BME280;24008;42.664;23.372;2023-10-31T04:53:02;94806.47;;;8.64;92.18
6136;BME280;24008;42.664;23.372;2023-10-31T04:55:29;94842.22;;;8.84;92.53
6136;BME280;24008;42.664;23.372;2023-10-31T04:57:57;94843.00;;;8.75;92.06
6136;BME280;24008;42.664;23.372;2023-10-31T05:00:24;94844.19;;;8.71;92.28
6136;BME280;24008;42.664;23.372;2023-10-31T05:02:50;94850.34;;;8.68;92.18
6136;BME280;24008;42.664;23.372;2023-10-31T05:05:17;94841.47;;;8.62;92.38
6136;BME280;24008;42.664;23.372;2023-10-31T05:07:44;94848.19;;;8.63;92.50
6136;BME280;24008;42.664;23.372;2023-10-31T05:10:11;94830.66;;;8.49;92.48
6136;BME280;24008;42.664;23.372;2023-10-31T05:12:38;94846.91;;;8.58;92.34
6136;BME280;24008;42.664;23.372;2023-10-31T05:15:07;94823.94;;;8.48;93.52
6136;BME280;24008;42.664;23.372;2023-10-31T05:17:34;94841.69;;;8.59;92.57
6136;BME280;24008;42.664;23.372;2023-10-31T05:20:01;94813.47;;;8.42;92.76
6136;BME280;24008;42.664;23.372;2023-10-31T05:22:28;94841.47;;;8.62;92.57
6136;BME280;24008;42.664;23.372;2023-10-31T05:24:54;94842.41;;;8.61;92.52
6136;BME280;24008;42.664;23.372;2023-10-31T05:27:21;94833.91;;;8.51;92.86
6136;BME280;24008;42.664;23.372;2023-10-31T05:29:48;94849.91;;;8.63;93.04
6136;BME280;24008;42.664;23.372;2023-10-31T05:32:16;94830.16;;;8.55;93.04
6136;BME280;24008;42.664;23.372;2023-10-31T05:34:43;94822.19;;;8.70;92.51
6136;BME280;24008;42.664;23.372;2023-10-31T05:37:09;94798.84;;;8.64;92.03
6136;BME280;24008;42.664;23.372;2023-10-31T05:39:36;94863.13;;;9.08;89.91
6136;BME280;24008;42.664;23.372;2023-10-31T05:42:03;94829.31;;;9.06;89.96
6136;BME280;24008;42.664;23.372;2023-10-31T05:44:30;94862.66;;;9.24;88.88
6136;BME280;24008;42.664;23.372;2023-10-31T05:46:57;94861.06;;;9.32;88.74
6136;BME280;24008;42.664;23.372;2023-10-31T05:49:25;94858.50;;;9.32;88.11
6136;BME280;24008;42.664;23.372;2023-10-31T05:51:52;94843.91;;;9.44;87.43
6136;BME280;24008;42.664;23.372;2023-10-31T05:54:19;94847.44;;;9.62;87.29
6136;BME280;24008;42.664;23.372;2023-10-31T05:56:46;94820.88;;;9.65;86.99
6136;BME280;24008;42.664;23.372;2023-10-31T05:59:13;94851.91;;;10.08;84.67
6136;BME280;24008;42.664;23.372;2023-10-31T06:01:40;94824.63;;;9.99;82.73
6136;BME280;24008;42.664;23.372;2023-10-31T06:04:07;94832.41;;;10.46;83.20
6136;BME280;24008;42.664;23.372;2023-10-31T06:06:37;94879.44;;;11.74;81.14
6136;BME280;24008;42.664;23.372;2023-10-31T06:09:04;94878.50;;;12.46;76.61
6136;BME280;24008;42.664;23.372;2023-10-31T06:11:31;94868.09;;;12.65;73.08
6136;BME280;24008;42.664;23.372;2023-10-31T06:13:58;94874.41;;;13.05;71.96
6136;BME280;24008;42.664;23.372;2023-10-31T06:16:25;94884.94;;;13.53;71.04
6136;BME280;24008;42.664;23.372;2023-10-31T06:18:52;94884.22;;;14.44;67.73
6136;BME280;24008;42.664;23.372;2023-10-31T06:21:19;94878.75;;;15.34;63.89
6136;BME280;24008;42.664;23.372;2023-10-31T06:23:47;94863.88;;;15.69;60.02
6136;BME280;24008;42.664;23.372;2023-10-31T06:26:14;94862.78;;;15.86;59.25
6136;BME280;24008;42.664;23.372;2023-10-31T06:28:40;94861.44;;;15.67;57.81
6136;BME280;24008;42.664;23.372;2023-10-31T06:31:07;94882.03;;;15.20;58.69
6136;BME280;24008;42.664;23.372;2023-10-31T06:33:34;94864.75;;;14.41;60.71
6136;BME280;24008;42.664;23.372;2023-10-31T06:36:01;94827.19;;;13.65;62.62
6136;BME280;24008;42.664;23.372;2023-10-31T06:38:28;94887.59;;;13.78;63.57
6136;BME280;24008;42.664;23.372;2023-10-31T06:40:56;94888.81;;;13.49;64.61
6136;BME280;24008;42.664;23.372;2023-10-31T06:43:23;94823.34;;;12.85;65.38
6136;BME280;24008;42.664;23.372;2023-10-31T06:45:50;94889.06;;;13.12;66.45
6136;BME280;24008;42.664;23.372;2023-10-31T06:48:17;94885.59;;;12.95;67.37
6136;BME280;24008;42.664;23.372;2023-10-31T06:50:43;94891.28;;;13.07;68.47
6136;BME280;24008;42.664;23.372;2023-10-31T06:53:10;94886.78;;;13.27;67.77
6136;BME280;24008;42.664;23.372;2023-10-31T06:55:37;94817.50;;;13.01;67.72
6136;BME280;24008;42.664;23.372;2023-10-31T06:58:05;94839.38;;;13.47;66.79
6136;BME280;24008;42.664;23.372;2023-10-31T07:00:32;94707.16;;;13.51;64.69
6136;BME280;24008;42.664;23.372;2023-10-31T07:02:58;94872.22;;;16.02;61.54
6136;BME280;24008;42.664;23.372;2023-10-31T07:05:30;94869.69;;;17.58;56.31
6136;BME280;24008;42.664;23.372;2023-10-31T07:07:57;94851.19;;;18.69;51.99
6136;BME280;24008;42.664;23.372;2023-10-31T07:10:23;94853.00;;;19.72;48.76
6136;BME280;24008;42.664;23.372;2023-10-31T07:12:50;94882.38;;;20.47;46.40
6136;BME280;24008;42.664;23.372;2023-10-31T07:15:18;94878.81;;;21.27;44.57
6136;BME280;24008;42.664;23.372;2023-10-31T07:17:46;94796.03;;;21.11;43.19
6136;BME280;24008;42.664;23.372;2023-10-31T07:20:13;94883.78;;;22.06;42.50
6136;BME280;24008;42.664;23.372;2023-10-31T07:22:40;94853.53;;;22.43;41.08
6136;BME280;24008;42.664;23.372;2023-10-31T07:25:07;94865.00;;;22.67;40.58
6136;BME280;24008;42.664;23.372;2023-10-31T07:27:34;94867.25;;;22.88;40.21
6136;BME280;24008;42.664;23.372;2023-10-31T07:30:02;94828.66;;;23.40;39.13
6136;BME280;24008;42.664;23.372;2023-10-31T07:32:30;94864.44;;;24.24;36.74
6136;BME280;24008;42.664;23.372;2023-10-31T07:34:57;94866.44;;;25.05;35.50
6136;BME280;24008;42.664;23.372;2023-10-31T07:37:24;94704.41;;;24.29;34.33
6136;BME280;24008;42.664;23.372;2023-10-31T07:39:51;94873.81;;;25.55;34.29
6136;BME280;24008;42.664;23.372;2023-10-31T07:42:18;94837.03;;;25.73;33.58
6136;BME280;24008;42.664;23.372;2023-10-31T07:44:45;94847.88;;;26.05;33.05
6136;BME280;24008;42.664;23.372;2023-10-31T07:47:11;94755.19;;;25.26;33.67
6136;BME280;24008;42.664;23.372;2023-10-31T07:49:39;94842.66;;;25.65;34.24
6136;BME280;24008;42.664;23.372;2023-10-31T07:52:06;94834.47;;;25.15;34.88
6136;BME280;24008;42.664;23.372;2023-10-31T07:54:33;94808.22;;;25.22;34.53
6136;BME280;24008;42.664;23.372;2023-10-31T07:57:00;94844.34;;;26.00;33.12
6136;BME280;24008;42.664;23.372;2023-10-31T07:59:26;94836.97;;;25.97;32.85
6136;BME280;24008;42.664;23.372;2023-10-31T08:01:53;94736.66;;;25.28;33.44
6136;BME280;24008;42.664;23.372;2023-10-31T08:04:20;94830.47;;;25.71;33.49
6136;BME280;24008;42.664;23.372;2023-10-31T08:06:48;94820.41;;;25.79;33.41
6136;BME280;24008;42.664;23.372;2023-10-31T08:09:15;94816.47;;;25.65;33.80
6136;BME280;24008;42.664;23.372;2023-10-31T08:11:42;94644.16;;;25.05;33.52
6136;BME280;24008;42.664;23.372;2023-10-31T08:14:09;94718.97;;;26.03;32.59
6136;BME280;24008;42.664;23.372;2023-10-31T08:16:36;94778.88;;;26.28;32.38
6136;BME280;24008;42.664;23.372;2023-10-31T08:19:03;94725.38;;;25.27;33.56
6136;BME280;24008;42.664;23.372;2023-10-31T08:21:30;94813.22;;;26.43;32.88
6136;BME280;24008;42.664;23.372;2023-10-31T08:24:02;94768.91;;;26.42;32.38
6136;BME280;24008;42.664;23.372;2023-10-31T08:26:29;94806.44;;;26.81;32.07
6136;BME280;24008;42.664;23.372;2023-10-31T08:28:56;94756.44;;;26.20;32.51
6136;BME280;24008;42.664;23.372;2023-10-31T08:31:23;94801.59;;;26.39;33.12
6136;BME280;24008;42.664;23.372;2023-10-31T08:33:50;94707.09;;;25.67;33.31
6136;BME280;24008;42.664;23.372;2023-10-31T08:36:17;94791.75;;;26.46;32.47
6136;BME280;24008;42.664;23.372;2023-10-31T08:38:43;94789.94;;;26.97;32.17
6136;BME280;24008;42.664;23.372;2023-10-31T08:41:12;94786.28;;;27.80;31.33
6136;BME280;24008;42.664;23.372;2023-10-31T08:43:44;94637.34;;;27.05;30.74
6136;BME280;24008;42.664;23.372;2023-10-31T08:46:10;94711.19;;;27.36;30.66
6136;BME280;24008;42.664;23.372;2023-10-31T08:48:38;94734.53;;;26.94;31.24
6136;BME280;24008;42.664;23.372;2023-10-31T08:51:05;94770.13;;;27.06;31.81
6136;BME280;24008;42.664;23.372;2023-10-31T08:53:32;94755.75;;;27.31;31.54
6136;BME280;24008;42.664;23.372;2023-10-31T08:55:58;94757.69;;;27.18;31.57
6136;BME280;24008;42.664;23.372;2023-10-31T08:58:28;94699.34;;;26.73;31.77
6136;BME280;24008;42.664;23.372;2023-10-31T09:00:55;94740.91;;;26.98;32.00
6136;BME280;24008;42.664;23.372;2023-10-31T09:03:24;94739.75;;;27.32;31.94
6136;BME280;24008;42.664;23.372;2023-10-31T09:05:52;94744.88;;;27.66;31.29
6136;BME280;24008;42.664;23.372;2023-10-31T09:08:19;94740.78;;;28.02;30.25
6136;BME280;24008;42.664;23.372;2023-10-31T09:10:45;94729.75;;;27.51;31.40
6136;BME280;24008;42.664;23.372;2023-10-31T09:13:13;94727.50;;;26.61;32.61
6136;BME280;24008;42.664;23.372;2023-10-31T09:15:41;94719.19;;;26.30;32.82
6136;BME280;24008;42.664;23.372;2023-10-31T09:18:07;94650.69;;;26.10;33.52
6136;BME280;24008;42.664;23.372;2023-10-31T09:20:34;94713.19;;;26.68;33.30
6136;BME280;24008;42.664;23.372;2023-10-31T09:23:02;94662.75;;;26.61;32.27
6136;BME280;24008;42.664;23.372;2023-10-31T09:25:29;94535.94;;;25.40;32.93
6136;BME280;24008;42.664;23.372;2023-10-31T09:27:57;94533.56;;;25.55;33.54
6136;BME280;24008;42.664;23.372;2023-10-31T09:30:27;94700.34;;;26.67;33.38
6136;BME280;24008;42.664;23.372;2023-10-31T09:32:56;94682.69;;;26.45;33.35
6136;BME280;24008;42.664;23.372;2023-10-31T09:35:25;94681.91;;;26.62;33.05
6136;BME280;24008;42.664;23.372;2023-10-31T09:37:51;94644.84;;;26.36;32.79
6136;BME280;24008;42.664;23.372;2023-10-31T09:40:18;94469.88;;;24.99;32.77
6136;BME280;24008;42.664;23.372;2023-10-31T09:42:46;94667.53;;;26.14;33.52
6136;BME280;24008;42.664;23.372;2023-10-31T09:45:13;94587.06;;;25.93;33.42
6136;BME280;24008;42.664;23.372;2023-10-31T09:47:40;94504.53;;;25.40;33.25
6136;BME280;24008;42.664;23.372;2023-10-31T09:50:10;94652.91;;;26.68;32.93
6136;BME280;24008;42.664;23.372;2023-10-31T09:52:37;94290.06;;;24.39;32.22
6136;BME280;24008;42.664;23.372;2023-10-31T09:55:04;94540.94;;;25.58;33.37
6136;BME280;24008;42.664;23.372;2023-10-31T09:57:31;94645.31;;;26.33;33.30
6136;BME280;24008;42.664;23.372;2023-10-31T09:59:59;94634.72;;;26.83;32.28
6136;BME280;24008;42.664;23.372;2023-10-31T10:02:26;94547.34;;;26.78;31.31
6136;BME280;24008;42.664;23.372;2023-10-31T10:04:52;94628.94;;;27.25;31.54
6136;BME280;24008;42.664;23.372;2023-10-31T10:07:20;94662.16;;;26.93;31.43
6136;BME280;24008;42.664;23.372;2023-10-31T10:09:47;94571.34;;;25.76;32.18
6136;BME280;24008;42.664;23.372;2023-10-31T10:12:16;94617.38;;;25.43;33.25
6136;BME280;24008;42.664;23.372;2023-10-31T10:14:45;94522.38;;;23.94;34.22
6136;BME280;24008;42.664;23.372;2023-10-31T10:17:17;94586.00;;;23.58;35.58
6136;BME280;24008;42.664;23.372;2023-10-31T10:19:44;94492.38;;;22.55;37.15
6136;BME280;24008;42.664;23.372;2023-10-31T10:22:10;94590.72;;;23.08;37.38
6136;BME280;24008;42.664;23.372;2023-10-31T10:24:42;94589.38;;;22.87;37.46
6136;BME280;24008;42.664;23.372;2023-10-31T10:27:09;94535.34;;;22.46;38.02
6136;BME280;24008;42.664;23.372;2023-10-31T10:29:37;94525.50;;;22.48;37.86
6136;BME280;24008;42.664;23.372;2023-10-31T10:32:05;94551.28;;;22.38;38.46
6136;BME280;24008;42.664;23.372;2023-10-31T10:34:34;94513.22;;;21.76;39.46
6136;BME280;24008;42.664;23.372;2023-10-31T10:37:04;94569.00;;;22.30;38.71
6136;BME280;24008;42.664;23.372;2023-10-31T10:39:33;94521.28;;;21.92;39.20
6136;BME280;24008;42.664;23.372;2023-10-31T10:42:06;94571.59;;;22.30;38.92
6136;BME280;24008;42.664;23.372;2023-10-31T10:44:36;94559.72;;;22.15;38.34
6136;BME280;24008;42.664;23.372;2023-10-31T10:47:04;94556.06;;;22.41;37.93
6136;BME280;24008;42.664;23.372;2023-10-31T10:49:33;94552.28;;;22.55;37.11
6136;BME280;24008;42.664;23.372;2023-10-31T10:52:12;94551.19;;;22.63;35.43
6136;BME280;24008;42.664;23.372;2023-10-31T10:54:44;94250.38;;;20.79;36.25
6136;BME280;24008;42.664;23.372;2023-10-31T10:57:21;94534.09;;;22.67;36.87
6136;BME280;24008;42.664;23.372;2023-10-31T10:59:51;94523.25;;;22.70;36.96
6136;BME280;24008;42.664;23.372;2023-10-31T11:02:22;94525.06;;;22.70;36.95
6136;BME280;24008;42.664;23.372;2023-10-31T11:04:50;94479.59;;;22.36;36.59
6136;BME280;24008;42.664;23.372;2023-10-31T11:07:18;94402.25;;;21.70;36.55
6136;BME280;24008;42.664;23.372;2023-10-31T11:09:48;94338.09;;;21.27;36.98
6136;BME280;24008;42.664;23.372;2023-10-31T11:12:18;94510.97;;;22.41;37.02
6136;BME280;24008;42.664;23.372;2023-10-31T11:14:48;94426.31;;;21.83;37.44
6136;BME280;24008;42.664;23.372;2023-10-31T11:17:22;94437.94;;;21.81;38.10
6136;BME280;24008;42.664;23.372;2023-10-31T11:19:51;94497.56;;;22.07;38.50
6136;BME280;24008;42.664;23.372;2023-10-31T11:22:18;94496.97;;;22.05;39.48
6136;BME280;24008;42.664;23.372;2023-10-31T11:24:45;94486.97;;;22.02;39.16
6136;BME280;24008;42.664;23.372;2023-10-31T11:27:12;93894.22;;;18.19;39.79
6136;BME280;24008;42.664;23.372;2023-10-31T11:29:40;94474.25;;;21.94;39.75
6136;BME280;24008;42.664;23.372;2023-10-31T11:32:08;94472.97;;;22.03;39.38
6136;BME280;24008;42.664;23.372;2023-10-31T11:34:38;94453.69;;;21.86;39.63
6136;BME280;24008;42.664;23.372;2023-10-31T11:37:19;94458.78;;;22.17;39.15
6136;BME280;24008;42.664;23.372;2023-10-31T11:40:22;94326.53;;;21.41;38.82
6136;BME280;24008;42.664;23.372;2023-10-31T11:42:50;94455.00;;;22.32;39.20
6136;BME280;24008;42.664;23.372;2023-10-31T11:45:34;94400.78;;;21.92;39.54
6136;BME280;24008;42.664;23.372;2023-10-31T11:48:01;94389.00;;;21.89;38.81
6136;BME280;24008;42.664;23.372;2023-10-31T11:50:30;94262.38;;;21.17;38.64
6136;BME280;24008;42.664;23.372;2023-10-31T11:53:01;94438.81;;;22.30;38.93
6136;BME280;24008;42.664;23.372;2023-10-31T11:55:30;94240.31;;;21.08;38.41
6136;BME280;24008;42.664;23.372;2023-10-31T11:57:59;94262.91;;;21.26;38.78
6136;BME280;24008;42.664;23.372;2023-10-31T12:00:39;94339.94;;;21.75;39.04
6136;BME280;24008;42.664;23.372;2023-10-31T12:03:05;94420.00;;;22.27;38.96
6136;BME280;24008;42.664;23.372;2023-10-31T12:05:32;94316.78;;;21.55;39.80
6136;BME280;24008;42.664;23.372;2023-10-31T12:07:59;94415.53;;;22.16;40.13
6136;BME280;24008;42.664;23.372;2023-10-31T12:10:27;94418.09;;;22.05;40.55
6136;BME280;24008;42.664;23.372;2023-10-31T12:12:57;94412.91;;;21.98;40.99
6136;BME280;24008;42.664;23.372;2023-10-31T12:15:24;94399.72;;;22.00;40.30
6136;BME280;24008;42.664;23.372;2023-10-31T12:17:52;94367.63;;;21.87;40.38
6136;BME280;24008;42.664;23.372;2023-10-31T12:20:23;94343.44;;;21.69;39.49
6136;BME280;24008;42.664;23.372;2023-10-31T12:23:01;94354.69;;;21.63;39.55
6136;BME280;24008;42.664;23.372;2023-10-31T12:25:28;93912.03;;;18.72;39.30
6136;BME280;24008;42.664;23.372;2023-10-31T12:27:55;94068.69;;;19.93;39.90
6136;BME280;24008;42.664;23.372;2023-10-31T12:30:22;94309.63;;;21.69;39.35
6136;BME280;24008;42.664;23.372;2023-10-31T12:32:55;94405.22;;;22.40;38.80
6136;BME280;24008;42.664;23.372;2023-10-31T12:35:23;94393.13;;;22.45;38.79
6136;BME280;24008;42.664;23.372;2023-10-31T12:37:51;94394.94;;;22.45;38.72
6136;BME280;24008;42.664;23.372;2023-10-31T12:40:19;94384.16;;;22.41;38.74
6136;BME280;24008;42.664;23.372;2023-10-31T12:42:47;94303.94;;;21.90;38.82
6136;BME280;24008;42.664;23.372;2023-10-31T12:45:16;94365.94;;;22.41;38.83
6136;BME280;24008;42.664;23.372;2023-10-31T12:47:44;94296.13;;;21.90;38.64
6136;BME280;24008;42.664;23.372;2023-10-31T12:50:14;94360.16;;;22.39;38.75
6136;BME280;24008;42.664;23.372;2023-10-31T12:52:51;94342.47;;;22.30;38.57
6136;BME280;24008;42.664;23.372;2023-10-31T12:55:21;94317.47;;;21.99;38.79
6136;BME280;24008;42.664;23.372;2023-10-31T12:57:49;94215.91;;;21.45;38.78
6136;BME280;24008;42.664;23.372;2023-10-31T13:00:18;94269.84;;;21.80;38.77
6136;BME280;24008;42.664;23.372;2023-10-31T13:02:50;94311.88;;;21.95;39.03
6136;BME280;24008;42.664;23.372;2023-10-31T13:05:19;94362.16;;;22.25;38.91
6136;BME280;24008;42.664;23.372;2023-10-31T13:07:53;94366.66;;;22.18;39.16